createdAt,value
2022-08-24T00:01:43.268Z,4.20
2022-08-24T00:04:20.009Z,3.20
2022-08-24T00:06:54.013Z,4.07
2022-08-24T00:09:27.289Z,5.03
2022-08-24T00:11:57.587Z,4.65
2022-08-24T00:14:28.409Z,4.35
2022-08-24T00:16:59.391Z,2.42
2022-08-24T00:19:30.788Z,2.97
2022-08-24T00:22:02.015Z,2.65
2022-08-24T00:24:33.396Z,2.15
2022-08-24T00:27:03.773Z,1.58
2022-08-24T00:29:39.818Z,1.60
2022-08-24T00:34:58.579Z,1.23
2022-08-24T00:37:31.532Z,1.52
2022-08-24T00:40:02.069Z,1.55
2022-08-24T00:42:32.475Z,0.40
2022-08-24T00:45:02.838Z,0.30
2022-08-24T00:47:42.014Z,1.67
2022-08-24T00:51:19.039Z,1.25
2022-08-24T00:54:35.352Z,1.08
2022-08-24T00:57:17.095Z,1.50
2022-08-24T00:59:59.289Z,0.17
2022-08-24T01:02:34.461Z,0.35
2022-08-24T01:05:09.321Z,0.47
2022-08-24T01:07:40.963Z,1.88
2022-08-24T01:10:18.472Z,0.85
2022-08-24T01:13:00.776Z,0.68
2022-08-24T01:15:38.203Z,0.75
2022-08-24T01:18:51.254Z,0.95
2022-08-24T01:21:38.031Z,2.90
2022-08-24T01:24:15.836Z,2.20
2022-08-24T01:26:52.819Z,0.70
2022-08-24T01:29:27.003Z,1.38
2022-08-24T01:31:58.193Z,0.10
2022-08-24T01:34:29.195Z,2.05
2022-08-24T01:37:02.156Z,1.95
2022-08-24T01:39:39.945Z,4.03
2022-08-24T01:42:10.945Z,0.43
2022-08-24T01:44:43.934Z,1.30
2022-08-24T01:47:16.775Z,1.50
2022-08-24T01:49:50.152Z,1.45
2022-08-24T01:52:32.068Z,0.40
2022-08-24T01:55:22.467Z,0.20
2022-08-24T01:57:53.502Z,0.30
2022-08-24T02:00:24.296Z,1.02
2022-08-24T02:02:54.870Z,0.63
2022-08-24T02:05:26.046Z,0.22
2022-08-24T02:07:57.590Z,1.08
2022-08-24T02:10:29.934Z,0.88
2022-08-24T02:13:02.212Z,0.73
2022-08-24T02:15:42.070Z,1.20
2022-08-24T02:18:15.877Z,0.80
2022-08-24T02:20:48.274Z,0.75
2022-08-24T02:23:21.906Z,0.73
2022-08-24T02:25:52.583Z,0.40
2022-08-24T02:28:27.080Z,0.20
2022-08-24T02:30:57.941Z,0.30
2022-08-24T02:33:29.729Z,0.95
2022-08-24T02:36:00.322Z,0.43
2022-08-24T02:38:35.424Z,0.22
2022-08-24T02:41:07.311Z,0.35
2022-08-24T02:43:38.666Z,0.38
2022-08-24T02:46:13.693Z,1.75
2022-08-24T02:48:44.354Z,0.30
2022-08-24T02:51:25.723Z,1.15
2022-08-24T02:53:56.951Z,0.90
2022-08-24T02:56:27.952Z,0.20
2022-08-24T02:59:00.214Z,1.20
2022-08-24T03:01:34.580Z,1.60
2022-08-24T03:04:07.834Z,0.82
2022-08-24T03:06:39.439Z,1.48
2022-08-24T03:09:12.257Z,1.98
2022-08-24T03:11:45.153Z,2.95
2022-08-24T03:14:16.319Z,1.67
2022-08-24T03:16:47.622Z,0.40
2022-08-24T03:19:18.164Z,1.02
2022-08-24T03:21:48.483Z,0.57
2022-08-24T03:24:20.284Z,0.85
2022-08-24T03:26:50.877Z,0.73
2022-08-24T03:29:23.976Z,1.48
2022-08-24T03:31:56.244Z,0.20
2022-08-24T03:34:29.291Z,0.68
2022-08-24T03:37:00.449Z,0.25
2022-08-24T03:39:34.478Z,1.48
2022-08-24T03:42:05.645Z,1.23
2022-08-24T03:44:36.600Z,1.45
2022-08-24T03:47:08.188Z,0.43
2022-08-24T03:49:40.144Z,0.43
2022-08-24T03:52:11.473Z,1.13
2022-08-24T03:54:43.680Z,2.08
2022-08-24T03:57:14.431Z,1.65
2022-08-24T03:59:47.542Z,0.82
2022-08-24T04:02:20.869Z,1.25
2022-08-24T04:04:56.579Z,0.50
2022-08-24T04:07:27.953Z,2.72
2022-08-24T04:10:02.761Z,0.30
2022-08-24T04:13:01.435Z,1.10
2022-08-24T04:15:56.220Z,0.82
2022-08-24T04:21:02.221Z,1.17
2022-08-24T04:23:47.505Z,1.23
2022-08-24T04:26:28.730Z,1.45
2022-08-24T04:29:12.772Z,1.58
2022-08-24T04:31:45.042Z,1.02
2022-08-24T04:34:18.808Z,1.08
2022-08-24T04:36:50.172Z,2.50
2022-08-24T04:39:21.073Z,0.40
2022-08-24T04:41:54.781Z,0.93
2022-08-24T04:44:26.629Z,1.38
2022-08-24T04:46:58.649Z,1.48
2022-08-24T04:49:34.792Z,0.30
2022-08-24T04:52:10.937Z,0.35
2022-08-24T04:54:43.167Z,1.20
2022-08-24T04:57:18.193Z,1.02
2022-08-24T04:59:52.240Z,0.63
2022-08-24T05:02:26.061Z,1.10
2022-08-24T05:05:00.812Z,1.35
2022-08-24T05:07:33.719Z,0.85
2022-08-24T05:10:09.196Z,0.47
2022-08-24T05:12:42.600Z,2.10
2022-08-24T05:15:15.094Z,1.05
2022-08-24T05:17:51.376Z,0.73
2022-08-24T05:20:22.396Z,1.40
2022-08-24T05:22:59.956Z,1.88
2022-08-24T05:25:35.435Z,0.55
2022-08-24T05:28:09.713Z,6.38
2022-08-24T05:30:46.583Z,2.88
2022-08-24T05:33:23.623Z,1.88
2022-08-24T05:35:54.387Z,0.90
2022-08-24T05:38:30.684Z,0.52
2022-08-24T05:41:02.705Z,1.13
2022-08-24T05:43:33.726Z,0.32
2022-08-24T05:46:04.206Z,2.00
2022-08-24T05:48:39.019Z,0.80
2022-08-24T05:51:11.571Z,1.45
2022-08-24T05:53:43.997Z,1.98
2022-08-24T05:56:17.359Z,1.58
2022-08-24T05:58:50.582Z,3.03
2022-08-24T06:01:27.846Z,1.05
2022-08-24T06:03:59.874Z,0.95
2022-08-24T06:06:31.119Z,1.17
2022-08-24T06:09:03.855Z,1.30
2022-08-24T06:11:40.001Z,1.45
2022-08-24T06:14:21.885Z,0.40
2022-08-24T06:16:55.470Z,1.80
2022-08-24T06:19:30.263Z,4.32
2022-08-24T06:22:02.676Z,1.52
2022-08-24T06:24:54.817Z,1.23
2022-08-24T06:27:28.870Z,2.05
2022-08-24T06:30:07.789Z,0.85
2022-08-24T06:32:39.346Z,2.42
2022-08-24T06:35:11.384Z,2.70
2022-08-24T06:37:42.295Z,1.92
2022-08-24T06:40:13.738Z,1.15
2022-08-24T06:42:45.605Z,1.40
2022-08-24T06:45:16.616Z,2.40
2022-08-24T06:47:49.389Z,3.55
2022-08-24T06:50:24.602Z,2.65
2022-08-24T06:52:55.834Z,3.20
2022-08-24T06:55:27.851Z,1.00
2022-08-24T06:57:59.205Z,0.40
2022-08-24T07:00:30.058Z,1.60
2022-08-24T07:03:01.075Z,1.35
2022-08-24T07:05:33.843Z,2.70
2022-08-24T07:08:10.462Z,2.30
2022-08-24T07:10:42.621Z,2.90
2022-08-24T07:13:15.771Z,3.03
2022-08-24T07:15:47.388Z,2.60
2022-08-24T07:18:20.712Z,2.22
2022-08-24T07:20:54.362Z,1.27
2022-08-24T07:23:41.065Z,1.92
2022-08-24T07:26:40.918Z,1.33
2022-08-24T07:30:16.262Z,1.90
2022-08-24T07:33:02.580Z,4.53
2022-08-24T07:35:35.041Z,3.28
2022-08-24T07:38:12.996Z,4.88
2022-08-24T07:41:20.222Z,6.05
2022-08-24T07:43:54.063Z,2.88
2022-08-24T07:46:26.854Z,1.42
2022-08-24T07:49:11.552Z,2.75
2022-08-24T07:51:53.507Z,4.22
2022-08-24T07:55:16.554Z,1.23
2022-08-24T07:57:48.288Z,1.25
2022-08-24T08:00:21.861Z,1.55
2022-08-24T08:02:52.707Z,1.08
2022-08-24T08:05:26.050Z,2.05
2022-08-24T08:07:56.936Z,4.53
2022-08-24T08:10:27.816Z,1.50
2022-08-24T08:12:59.230Z,0.93
2022-08-24T08:15:31.668Z,1.15
2022-08-24T08:18:03.135Z,2.63
2022-08-24T08:20:35.405Z,1.42
2022-08-24T08:23:24.253Z,1.33
2022-08-24T08:25:56.929Z,1.40
2022-08-24T08:28:35.474Z,0.52
2022-08-24T08:31:09.480Z,0.90
2022-08-24T08:33:41.918Z,1.20
2022-08-24T08:36:17.088Z,2.42
2022-08-24T08:38:48.228Z,3.40
2022-08-24T08:41:26.538Z,0.60
2022-08-24T08:44:17.835Z,2.15
2022-08-24T08:47:16.083Z,1.58
2022-08-24T08:50:13.511Z,1.25
2022-08-24T08:53:08.389Z,1.92
2022-08-24T08:56:02.548Z,3.15
2022-08-24T08:58:57.136Z,2.80
2022-08-24T09:01:54.539Z,0.93
2022-08-24T09:04:59.650Z,2.67
2022-08-24T09:08:15.325Z,2.00
2022-08-24T09:10:58.421Z,0.85
2022-08-24T09:14:27.863Z,2.03
2022-08-24T09:17:35.119Z,1.77
2022-08-24T09:20:32.791Z,1.05
2022-08-24T09:23:15.932Z,1.55
2022-08-24T09:26:25.869Z,2.47
2022-08-24T09:29:11.972Z,2.55
2022-08-24T09:31:55.758Z,0.85
2022-08-24T09:34:37.380Z,1.20
2022-08-24T09:37:08.340Z,1.63
2022-08-24T09:39:41.905Z,0.90
2022-08-24T09:42:37.720Z,1.92
2022-08-24T09:45:26.418Z,1.00
2022-08-24T09:48:23.135Z,4.15
2022-08-24T09:51:26.701Z,0.98
2022-08-24T09:54:26.206Z,1.45
2022-08-24T09:57:12.158Z,2.15
2022-08-24T09:59:46.314Z,2.47
2022-08-24T10:02:29.279Z,1.13
2022-08-24T10:05:26.335Z,3.90
2022-08-24T10:08:41.358Z,2.20
2022-08-24T10:11:27.296Z,1.10
2022-08-24T10:14:25.994Z,2.03
2022-08-24T10:16:59.405Z,1.85
2022-08-24T10:20:04.943Z,5.55
2022-08-24T10:23:11.706Z,1.83
2022-08-24T10:26:14.568Z,3.25
2022-08-24T10:29:21.596Z,2.78
2022-08-24T10:32:05.550Z,1.65
2022-08-24T10:35:13.749Z,3.95
2022-08-24T10:38:29.839Z,1.48
2022-08-24T10:41:39.296Z,4.40
2022-08-24T10:44:33.491Z,2.95
2022-08-24T10:47:30.621Z,1.88
2022-08-24T10:50:30.944Z,1.55
2022-08-24T10:53:14.652Z,2.08
2022-08-24T10:55:47.729Z,3.00
2022-08-24T10:58:48.518Z,4.72
2022-08-24T11:01:23.088Z,3.55
2022-08-24T11:04:04.861Z,5.43
2022-08-24T11:06:46.134Z,5.50
2022-08-24T11:09:21.672Z,4.30
2022-08-24T11:11:54.843Z,4.28
2022-08-24T11:14:29.183Z,3.75
2022-08-24T11:17:22.856Z,4.32
2022-08-24T11:19:56.552Z,7.68
2022-08-24T11:22:45.181Z,9.55
2022-08-24T11:25:23.753Z,5.82
2022-08-24T11:28:05.820Z,8.55
2022-08-24T11:30:42.708Z,6.05
2022-08-24T11:33:38.388Z,9.30
2022-08-24T11:36:21.435Z,4.45
2022-08-24T11:39:12.076Z,4.82
2022-08-24T11:41:56.060Z,4.28
2022-08-24T11:44:44.639Z,5.53
2022-08-24T11:47:27.150Z,7.68
2022-08-24T11:50:06.937Z,4.00
2022-08-24T11:52:55.526Z,2.28
2022-08-24T11:56:02.207Z,5.03
2022-08-24T11:59:02.957Z,5.43
2022-08-24T12:01:48.651Z,1.40
2022-08-24T12:04:34.720Z,2.17
2022-08-24T12:07:22.837Z,5.30
2022-08-24T12:10:02.585Z,3.67
2022-08-24T12:12:50.371Z,5.25
2022-08-24T12:15:36.568Z,1.23
2022-08-24T12:18:29.067Z,3.47
2022-08-24T12:21:01.618Z,4.28
2022-08-24T12:24:12.321Z,4.03
2022-08-24T12:26:53.961Z,2.47
2022-08-24T12:29:37.301Z,6.68
2022-08-24T12:32:17.303Z,7.40
2022-08-24T12:34:51.530Z,6.57
2022-08-24T12:37:53.069Z,8.15
2022-08-24T12:40:37.281Z,6.80
2022-08-24T12:43:19.414Z,9.52
2022-08-24T12:45:51.616Z,8.63
2022-08-24T12:48:44.533Z,11.15
2022-08-24T12:51:53.488Z,7.95
2022-08-24T12:54:48.375Z,6.80
2022-08-24T12:57:51.779Z,7.38
2022-08-24T13:00:52.715Z,7.30
2022-08-24T13:03:37.222Z,3.20
2022-08-24T13:06:15.483Z,2.03
2022-08-24T13:08:49.674Z,3.60
2022-08-24T13:11:36.727Z,1.80
2022-08-24T13:14:11.284Z,1.33
2022-08-24T13:17:01.624Z,2.42
2022-08-24T13:19:33.583Z,3.92
2022-08-24T13:22:35.805Z,11.10
2022-08-24T13:25:26.296Z,6.72
2022-08-24T13:28:13.098Z,5.78
2022-08-24T13:31:11.082Z,3.05
2022-08-24T13:36:39.348Z,3.25
2022-08-24T13:39:16.150Z,2.53
2022-08-24T13:42:08.856Z,7.22
2022-08-24T13:45:09.959Z,8.32
2022-08-24T13:48:04.950Z,7.25
2022-08-24T13:50:40.180Z,3.08
2022-08-24T13:53:48.936Z,4.57
2022-08-24T13:56:32.610Z,2.72
2022-08-24T13:59:07.081Z,3.83
2022-08-24T14:01:52.251Z,3.33
2022-08-24T14:04:29.288Z,3.53
2022-08-24T14:07:16.937Z,1.48
2022-08-24T14:10:10.497Z,3.00
2022-08-24T14:12:47.691Z,0.85
2022-08-24T14:16:29.687Z,1.95
2022-08-24T14:19:54.302Z,2.85
2022-08-24T14:22:40.505Z,3.40
2022-08-24T14:25:27.904Z,1.23
2022-08-24T14:27:58.530Z,2.67
2022-08-24T14:30:31.784Z,3.85
2022-08-24T14:33:02.314Z,4.57
2022-08-24T14:35:46.407Z,1.83
2022-08-24T14:38:56.600Z,1.73
2022-08-24T14:41:44.151Z,1.85
2022-08-24T14:44:33.843Z,2.10
2022-08-24T14:47:28.850Z,3.15
2022-08-24T14:50:12.916Z,1.52
2022-08-24T14:52:44.078Z,2.45
2022-08-24T14:55:41.422Z,2.22
2022-08-24T14:58:31.314Z,3.33
2022-08-24T15:01:34.960Z,0.77
2022-08-24T15:04:37.791Z,0.98
2022-08-24T15:07:33.832Z,2.35
2022-08-24T15:10:06.796Z,0.13
2022-08-24T15:12:44.730Z,1.80
2022-08-24T15:15:45.013Z,1.45
2022-08-24T15:18:23.746Z,1.48
2022-08-24T15:21:17.408Z,1.33
2022-08-24T15:24:09.285Z,1.98
2022-08-24T15:26:48.797Z,1.40
2022-08-24T15:29:23.269Z,0.40
2022-08-24T15:32:07.704Z,0.30
2022-08-24T15:34:57.321Z,0.50
2022-08-24T15:37:35.514Z,0.10
2022-08-24T15:40:18.693Z,0.32
2022-08-24T15:42:51.257Z,0.57
2022-08-24T15:45:23.126Z,2.72
2022-08-24T15:47:57.231Z,0.75
2022-08-24T15:50:37.449Z,0.30
2022-08-24T15:53:26.980Z,0.80
2022-08-24T15:55:58.705Z,0.15
2022-08-24T15:58:42.287Z,0.20
2022-08-24T16:01:30.683Z,2.58
2022-08-24T16:04:05.318Z,1.25
2022-08-24T16:06:35.826Z,0.43
2022-08-24T16:09:09.020Z,0.80
2022-08-24T16:11:49.593Z,0.98
2022-08-24T16:14:41.266Z,0.57
2022-08-24T16:17:32.661Z,0.40
2022-08-24T16:20:25.090Z,0.65
2022-08-24T16:23:00.845Z,0.50
2022-08-24T16:25:37.826Z,0.77
2022-08-24T16:28:37.834Z,0.65
2022-08-24T16:31:09.797Z,0.33
2022-08-24T16:33:50.343Z,0.43
2022-08-24T16:36:24.566Z,1.20
2022-08-24T16:38:55.555Z,1.40
2022-08-24T16:41:29.337Z,3.10
2022-08-24T16:44:00.278Z,0.68
2022-08-24T16:46:31.597Z,0.50
2022-08-24T16:49:02.440Z,0.20
2022-08-24T16:51:35.862Z,0.13
2022-08-24T16:54:11.825Z,0.50
2022-08-24T16:56:44.897Z,0.20
2022-08-24T16:59:23.424Z,0.68
2022-08-24T17:01:55.330Z,1.20
2022-08-24T17:04:25.670Z,0.45
2022-08-24T17:06:58.678Z,0.22
2022-08-24T17:09:29.343Z,0.40
2022-08-24T17:12:00.150Z,0.88
2022-08-24T17:14:30.821Z,0.32
2022-08-24T17:17:02.346Z,1.10
2022-08-24T17:19:34.264Z,0.32
2022-08-24T17:22:06.945Z,0.32
2022-08-24T17:24:38.100Z,0.47
2022-08-24T17:27:10.068Z,0.30
2022-08-24T17:29:40.745Z,0.75
2022-08-24T17:32:11.761Z,0.77
2022-08-24T17:34:43.949Z,1.40
2022-08-24T17:37:15.545Z,1.00
2022-08-24T17:39:46.425Z,0.40
2022-08-24T17:42:46.884Z,0.08
2022-08-24T17:45:08.477Z,0.63
2022-08-24T17:47:40.625Z,0.17
2022-08-24T17:50:12.462Z,0.10
2022-08-24T17:52:44.057Z,0.20
2022-08-24T17:55:17.465Z,0.03
2022-08-24T17:57:57.323Z,0.73
2022-08-24T18:00:29.600Z,0.22
2022-08-24T18:03:01.199Z,0.52
2022-08-24T18:05:35.139Z,0.17
2022-08-24T18:08:06.120Z,0.28
2022-08-24T18:10:39.410Z,0.63
2022-08-24T18:13:13.960Z,1.65
2022-08-24T18:15:45.166Z,0.70
2022-08-24T18:18:15.394Z,0.30
2022-08-24T18:20:45.994Z,0.35
2022-08-24T18:23:17.473Z,0.43
2022-08-24T18:25:54.796Z,0.20
2022-08-24T18:28:25.949Z,0.22
2022-08-24T18:30:56.850Z,0.52
2022-08-24T18:33:27.460Z,0.17
2022-08-24T18:35:58.849Z,0.68
2022-08-24T18:38:29.902Z,0.70
2022-08-24T18:41:03.916Z,0.43
2022-08-24T18:43:34.568Z,0.32
2022-08-24T18:46:07.923Z,0.32
2022-08-24T18:48:38.591Z,5.05
2022-08-24T18:51:12.744Z,0.57
2022-08-24T18:53:43.567Z,0.17
2022-08-24T18:56:14.240Z,1.00
2022-08-24T18:58:44.877Z,1.35
2022-08-24T19:01:15.673Z,0.00
2022-08-24T19:03:47.451Z,0.55
2022-08-24T19:06:18.084Z,0.38
2022-08-24T19:08:48.621Z,1.15
2022-08-24T19:11:25.919Z,0.28
2022-08-24T19:13:56.818Z,0.47
2022-08-24T19:16:33.321Z,0.13
2022-08-24T19:19:04.366Z,0.22
2022-08-24T19:21:37.950Z,0.25
2022-08-24T19:24:09.993Z,0.20
2022-08-24T19:26:40.925Z,0.85
2022-08-24T19:29:12.330Z,0.38
2022-08-24T19:31:43.332Z,0.63
2022-08-24T19:34:15.940Z,0.15
2022-08-24T19:36:47.994Z,0.32
2022-08-24T19:39:18.899Z,1.00
2022-08-24T19:41:54.691Z,0.00
2022-08-24T19:44:51.693Z,0.08
2022-08-24T19:47:22.755Z,0.15
2022-08-24T19:49:55.221Z,0.28
2022-08-24T19:52:27.207Z,0.35
2022-08-24T19:55:01.395Z,0.03
2022-08-24T19:57:40.976Z,0.90
2022-08-24T20:00:20.903Z,0.30
2022-08-24T20:02:54.334Z,0.30
2022-08-24T20:05:27.518Z,0.00
2022-08-24T20:07:59.721Z,1.08
2022-08-24T20:10:30.587Z,0.32
2022-08-24T20:13:01.479Z,1.55
2022-08-24T20:15:32.276Z,0.30
2022-08-24T20:18:03.058Z,0.77
2022-08-24T20:20:35.436Z,1.10
2022-08-24T20:23:08.044Z,0.88
2022-08-24T20:25:39.697Z,1.48
2022-08-24T20:28:28.832Z,0.60
2022-08-24T20:31:00.397Z,1.17
2022-08-24T20:33:32.250Z,1.10
2022-08-24T20:36:04.074Z,0.32
2022-08-24T20:38:37.230Z,0.10
2022-08-24T20:41:09.064Z,0.20
2022-08-24T20:43:39.767Z,0.98
2022-08-24T20:46:10.439Z,0.55
2022-08-24T20:48:42.933Z,0.43
2022-08-24T20:51:14.940Z,0.77
2022-08-24T20:53:45.497Z,0.25
2022-08-24T20:56:31.267Z,0.90
2022-08-24T20:59:14.758Z,0.20
2022-08-24T21:01:45.839Z,0.13
2022-08-24T21:04:17.266Z,0.28
2022-08-24T21:06:50.859Z,0.28
2022-08-24T21:09:22.339Z,1.55
2022-08-24T21:11:53.123Z,1.58
2022-08-24T21:14:23.752Z,1.48
2022-08-24T21:16:54.530Z,1.30
2022-08-24T21:19:26.400Z,0.70
2022-08-24T21:21:57.052Z,0.85
2022-08-24T21:24:28.003Z,1.27
2022-08-24T21:27:01.802Z,0.25
2022-08-24T21:29:32.581Z,0.77
2022-08-24T21:32:21.350Z,0.70
2022-08-24T21:34:52.083Z,0.20
2022-08-24T21:37:24.121Z,0.38
2022-08-24T21:39:54.894Z,0.52
2022-08-24T21:42:25.523Z,1.00
2022-08-24T21:44:56.142Z,0.17
2022-08-24T21:47:28.057Z,0.75
2022-08-24T21:49:58.653Z,0.28
2022-08-24T21:52:30.189Z,0.17
2022-08-24T21:55:02.494Z,0.05
2022-08-24T21:57:34.242Z,0.20
2022-08-24T22:00:05.410Z,0.00
2022-08-24T22:02:36.967Z,1.63
2022-08-24T22:05:08.811Z,0.63
2022-08-24T22:07:39.716Z,0.35
2022-08-24T22:10:11.556Z,0.52
2022-08-24T22:12:46.490Z,5.93
2022-08-24T22:15:19.923Z,0.93
2022-08-24T22:17:55.875Z,1.38
2022-08-24T22:20:26.577Z,0.73
2022-08-24T22:22:57.305Z,2.75
2022-08-24T22:25:28.034Z,1.13
2022-08-24T22:27:59.579Z,2.00
2022-08-24T22:30:31.410Z,1.25
2022-08-24T22:33:02.594Z,0.52
2022-08-24T22:35:44.725Z,0.00
2022-08-24T22:38:16.799Z,0.13
2022-08-24T22:40:48.976Z,0.30
2022-08-24T22:43:24.818Z,0.00
2022-08-24T22:45:56.200Z,0.22
2022-08-24T22:48:27.192Z,0.08
2022-08-24T22:50:58.750Z,0.82
2022-08-24T22:53:30.321Z,0.57
2022-08-24T22:56:03.347Z,0.20
2022-08-24T22:58:34.047Z,0.13
2022-08-24T23:01:06.418Z,0.22
2022-08-24T23:03:37.169Z,0.03
2022-08-24T23:06:08.160Z,0.22
2022-08-24T23:08:39.695Z,0.30
2022-08-24T23:11:22.132Z,0.15
2022-08-24T23:14:06.993Z,0.00
2022-08-24T23:16:39.795Z,0.00
2022-08-24T23:19:30.477Z,0.00
2022-08-24T23:22:01.056Z,0.00
2022-08-24T23:24:32.378Z,0.10
2022-08-24T23:27:04.772Z,0.00
2022-08-24T23:29:36.472Z,0.00
2022-08-24T23:32:09.475Z,0.00
2022-08-24T23:34:41.817Z,0.00
2022-08-24T23:37:12.578Z,0.73
2022-08-24T23:39:45.790Z,0.08
2022-08-24T23:42:16.532Z,0.00
2022-08-24T23:44:52.143Z,0.38
2022-08-24T23:47:22.804Z,0.10
2022-08-24T23:49:53.540Z,0.20
2022-08-24T23:52:26.482Z,0.05
2022-08-24T23:55:21.598Z,0.00
2022-08-24T23:57:54.217Z,0.00
